»·PEaware :: UAL191 KSFO-KSMF

UAL191 :: KSFO-KSMF

FLIGHT INFORMATION

Flight Status: Arrived
Operator:
United Airlines
More flights by this operator :: More flights under this callsign
Pilot: Sergei F. (8485)
Aircraft: BOEING 737-300
(B733)
More flights by this aircraft type
Origin: KSFO San Francisco Intl
United States
Destination: KSMF Sacramento Intl
United States
More flights between these airports :: More routes between these airports
Route: +SFO4 SAC
File this flight plan on PilotEdge
Remarks:
Altitude:
(Current/Filed)
10,000ft
Speed:
(Current/Filed)
250kts
Departed: 05-May-18 07:58 PM
Arrived: 05-May-18 08:23 PM
Distance/Time
Traveled:
74nm/0:24
Distance/Time
To Go:
Arrived

Flight Plot

Page will automatically refresh every two minutes.

Flight plan parsing failed; only flown route is shown


Map Options




Map Legend


Flown Route
Filed Route
Departure Airport
Arrival Airport
Navaid (VOR, NDB)
Fix

Horizontal Profiles

Position Reports

Time Latitude Longitude Heading Altitude Ground
Speed
05-May-18 19:22 37.618312 -122.381984 139 16ft 0kts
05-May-18 19:28 37.618312 -122.381984 139 16ft 0kts
05-May-18 19:29 37.618312 -122.381984 139 16ft 0kts
05-May-18 19:30 37.618312 -122.381984 139 16ft 0kts
05-May-18 19:31 37.618312 -122.381984 139 16ft 0kts
05-May-18 19:32 37.618312 -122.381984 139 16ft 0kts
05-May-18 19:33 37.618312 -122.381984 139 16ft 0kts
05-May-18 19:34 37.618312 -122.381984 139 16ft 0kts
05-May-18 19:35 37.618312 -122.381984 139 16ft 0kts
05-May-18 19:36 37.618312 -122.381984 139 16ft 0kts
05-May-18 19:37 37.618312 -122.381984 139 16ft 0kts
05-May-18 19:38 37.618312 -122.381984 139 16ft 0kts
05-May-18 19:39 37.618312 -122.381984 139 16ft 0kts
05-May-18 19:39 37.618312 -122.381984 139 16ft 0kts
05-May-18 19:40 37.618417 -122.382099 138 16ft 2kts
05-May-18 19:41 37.618616 -122.382606 36 16ft 1kts
05-May-18 19:42 37.618991 -122.382349 27 16ft 0kts
05-May-18 19:43 37.618991 -122.382349 27 16ft 0kts
05-May-18 19:45 37.618991 -122.382349 27 16ft 0kts
05-May-18 19:46 37.618991 -122.382349 27 16ft 0kts
05-May-18 19:46 37.618991 -122.382349 27 16ft 0kts
05-May-18 19:47 37.618991 -122.382349 27 16ft 0kts
05-May-18 19:48 37.618991 -122.382349 27 16ft 0kts
05-May-18 19:49 37.619088 -122.382285 27 16ft 1kts
05-May-18 19:50 37.619265 -122.381077 118 16ft 6kts
05-May-18 19:51 37.617073 -122.379507 191 16ft 13kts
05-May-18 19:52 37.614567 -122.381009 209 16ft 8kts
05-May-18 19:53 37.611989 -122.382710 206 16ft 8kts
05-May-18 19:54 37.609737 -122.384355 216 16ft 9kts
05-May-18 19:55 37.608262 -122.383366 117 16ft 5kts
05-May-18 19:56 37.608480 -122.382559 29 16ft 8kts
05-May-18 19:57 37.637073 -122.360940 43 760ft 177kts
05-May-18 19:58 37.669805 -122.314200 46 3216ft 182kts
05-May-18 19:59 37.714858 -122.270264 34 4575ft 235kts
05-May-18 20:00 37.773293 -122.214365 36 6336ft 286kts
05-May-18 20:01 37.837767 -122.151508 38 8951ft 301kts
05-May-18 20:02 37.905996 -122.084666 39 9934ft 323kts
05-May-18 20:03 37.973310 -122.018577 39 9955ft 306kts
05-May-18 20:04 38.039460 -121.953341 39 9955ft 307kts
05-May-18 20:05 38.110996 -121.908747 12 9949ft 281kts
05-May-18 20:06 38.184436 -121.888013 12 9934ft 272kts
05-May-18 20:07 38.258012 -121.866356 16 9908ft 272kts
05-May-18 20:08 38.329330 -121.837906 17 8655ft 266kts
05-May-18 20:09 38.398574 -121.810178 17 7365ft 258kts
05-May-18 20:10 38.466113 -121.783312 17 6089ft 251kts
05-May-18 20:11 38.531723 -121.757076 17 4846ft 245kts
05-May-18 20:12 38.595574 -121.731389 17 3747ft 230kts
05-May-18 20:13 38.652514 -121.708332 17 2971ft 208kts
05-May-18 20:14 38.708742 -121.689392 4 2924ft 209kts
05-May-18 20:15 38.766024 -121.684241 0 1931ft 206kts
05-May-18 20:16 38.821951 -121.682192 0 1792ft 205kts
05-May-18 20:17 38.843615 -121.638417 115 1825ft 169kts
05-May-18 20:18 38.816278 -121.598033 176 1795ft 160kts
05-May-18 20:19 38.774037 -121.599775 182 1344ft 139kts
05-May-18 20:20 38.736586 -121.600642 181 632ft 132kts
05-May-18 20:21 38.701168 -121.601169 181 30ft 122kts
05-May-18 20:22 38.685602 -121.601450 180 29ft 21kts
05-May-18 20:23 38.683828 -121.600070 92 29ft 6kts
05-May-18 20:25 38.685949 -121.598801 359 29ft 13kts
05-May-18 20:26 38.689174 -121.598748 0 29ft 12kts
05-May-18 20:27 38.693566 -121.598680 1 29ft 16kts
05-May-18 20:28 38.696238 -121.598635 0 29ft 7kts
05-May-18 20:29 38.697009 -121.595915 91 29ft 12kts
05-May-18 20:30 38.696338 -121.594093 180 29ft 0kts
05-May-18 20:31 38.696268 -121.594094 180 29ft 0kts
05-May-18 20:32 38.696268 -121.594094 180 29ft 0kts
05-May-18 20:33 38.696268 -121.594094 180 29ft 0kts

Navigation Log

Ident Type
Flight plan parsing failed, navigation log unavailable